Time;durP1;ratioP1;P1;durP2;ratioP2;P2;SDS_P1;SDS_P2;PMS_P1;PMS_P2;Temp;Humidity;BMP_temperature;BMP_pressure;BME280_temperature;BME280_humidity;BME280_pressure;Samples;Min_cycle;Max_cycle;Signal;HPM_P1;HPM_P2
2022/04/03 00:00:46;;;;;;;8.70;6.82;;;;;;;;;;10288182;28;20852;-84
2022/04/03 00:05:48;;;;;;;8.63;6.40;;;;;;;;;;10279239;28;20965;-82
2022/04/03 00:10:50;;;;;;;8.55;6.40;;;;;;;;;;10283109;28;20402;-82
2022/04/03 00:15:55;;;;;;;8.80;6.70;;;;;;;;;;10273218;28;20420;-82
2022/04/03 00:20:57;;;;;;;9.37;6.00;;;;;;;;;;10285276;28;20501;-83
2022/04/03 00:25:59;;;;;;;9.10;6.00;;;;;;;;;;10292172;23;20510;-88
2022/04/03 00:31:03;;;;;;;7.60;6.00;;;;;;;;;;10277530;28;20887;-87
2022/04/03 00:36:05;;;;;;;6.95;5.80;;;;;;;;;;10278325;28;20521;-88
2022/04/03 00:41:08;;;;;;;7.47;5.80;;;;;;;;;;10277784;28;20543;-88
2022/04/03 00:46:12;;;;;;;8.10;5.87;;;;;;;;;;10277393;28;20498;-88
2022/04/03 00:51:15;;;;;;;6.20;5.28;;;;;;;;;;10276852;28;21293;-88
2022/04/03 00:56:16;;;;;;;7.97;5.72;;;;;;;;;;10275420;28;20412;-88
2022/04/03 01:01:21;;;;;;;8.02;5.95;;;;;;;;;;10276040;28;20525;-88
2022/04/03 01:06:22;;;;;;;8.32;6.18;;;;;;;;;;10272563;28;20942;-88
2022/04/03 01:11:26;;;;;;;8.90;6.53;;;;;;;;;;10277129;28;20414;-89
2022/04/03 01:16:30;;;;;;;9.43;6.60;;;;;;;;;;10268671;28;20538;-88
2022/04/03 01:21:31;;;;;;;8.23;6.70;;;;;;;;;;10272558;28;20466;-87
2022/04/03 01:26:35;;;;;;;9.38;6.93;;;;;;;;;;10275406;28;20509;-88
2022/04/03 01:31:36;;;;;;;10.03;6.90;;;;;;;;;;10275636;28;20465;-89
2022/04/03 01:36:38;;;;;;;10.07;7.10;;;;;;;;;;10272641;28;20407;-88
2022/04/03 01:41:43;;;;;;;8.27;6.60;;;;;;;;;;10271474;28;20430;-88
2022/04/03 01:46:45;;;;;;;9.17;6.80;;;;;;;;;;10276074;28;20501;-88
2022/04/03 01:51:47;;;;;;;9.00;6.20;;;;;;;;;;10273901;28;20489;-88
2022/04/03 01:56:50;;;;;;;8.47;6.37;;;;;;;;;;10273087;28;20494;-88
2022/04/03 02:01:52;;;;;;;8.00;6.30;;;;;;;;;;10269333;28;20518;-88
2022/04/03 02:06:54;;;;;;;9.37;6.37;;;;;;;;;;10254905;28;20406;-88
2022/04/03 02:11:58;;;;;;;7.87;6.10;;;;;;;;;;10261045;28;20416;-87
2022/04/03 02:17:00;;;;;;;7.93;5.78;;;;;;;;;;10252255;28;20412;-88
2022/04/03 02:22:02;;;;;;;6.80;5.53;;;;;;;;;;10260601;28;20423;-89
2022/04/03 02:27:06;;;;;;;6.17;5.50;;;;;;;;;;10259311;28;20436;-87
2022/04/03 02:32:08;;;;;;;6.55;5.38;;;;;;;;;;10265653;28;20414;-88
2022/04/03 02:37:10;;;;;;;5.95;5.00;;;;;;;;;;10257631;28;20428;-89
2022/04/03 02:42:14;;;;;;;6.13;5.03;;;;;;;;;;10256577;28;20440;-88
2022/04/03 02:47:15;;;;;;;7.43;5.33;;;;;;;;;;10255669;28;20499;-88
2022/04/03 02:52:17;;;;;;;6.88;4.95;;;;;;;;;;10265145;28;20413;-89
2022/04/03 02:57:21;;;;;;;6.30;5.50;;;;;;;;;;10259134;28;20504;-88
2022/04/03 03:02:23;;;;;;;6.45;5.20;;;;;;;;;;10270564;28;20433;-87
2022/04/03 03:07:25;;;;;;;7.22;5.00;;;;;;;;;;10267756;28;20443;-87
2022/04/03 03:12:29;;;;;;;6.22;4.90;;;;;;;;;;10265258;28;20443;-88
2022/04/03 03:17:32;;;;;;;6.75;5.00;;;;;;;;;;10262933;28;20416;-88
2022/04/03 03:22:34;;;;;;;7.18;4.75;;;;;;;;;;10265551;28;20429;-89
2022/04/03 03:27:39;;;;;;;6.20;4.80;;;;;;;;;;10258373;28;20419;-88
2022/04/03 03:32:40;;;;;;;6.53;4.70;;;;;;;;;;10261180;28;21199;-88
2022/04/03 03:37:44;;;;;;;5.60;4.53;;;;;;;;;;10262513;28;20415;-88
2022/04/03 03:42:47;;;;;;;6.38;4.40;;;;;;;;;;10258799;28;20915;-88
2022/04/03 03:47:49;;;;;;;5.70;4.73;;;;;;;;;;10263118;28;20495;-88
2022/04/03 03:52:51;;;;;;;7.33;4.47;;;;;;;;;;10259837;28;20416;-88
2022/04/03 03:57:54;;;;;;;5.70;4.57;;;;;;;;;;10261735;28;20445;-88
2022/04/03 04:02:56;;;;;;;6.60;4.65;;;;;;;;;;10259516;28;20916;-88
2022/04/03 04:07:58;;;;;;;5.80;4.18;;;;;;;;;;10270837;28;20907;-88
2022/04/03 04:13:01;;;;;;;6.50;4.77;;;;;;;;;;10279625;28;20509;-88
2022/04/03 04:18:03;;;;;;;5.78;4.43;;;;;;;;;;10275854;28;20418;-88
2022/04/03 04:23:05;;;;;;;7.18;4.97;;;;;;;;;;10275574;28;20842;-87
2022/04/03 04:28:09;;;;;;;7.93;5.45;;;;;;;;;;10268798;28;20457;-87
2022/04/03 04:33:10;;;;;;;9.00;5.70;;;;;;;;;;10275042;28;20498;-87
2022/04/03 04:38:12;;;;;;;7.77;5.50;;;;;;;;;;10275001;28;20594;-87
2022/04/03 04:43:16;;;;;;;7.50;6.47;;;;;;;;;;10263542;28;20527;-87
2022/04/03 04:48:18;;;;;;;7.03;5.10;;;;;;;;;;10271299;28;20415;-88
2022/04/03 04:53:20;;;;;;;6.37;5.03;;;;;;;;;;10275609;28;20420;-88
2022/04/03 04:58:23;;;;;;;7.05;5.13;;;;;;;;;;10276521;28;20970;-86
2022/04/03 05:03:25;;;;;;;5.83;4.60;;;;;;;;;;10276658;28;20435;-87
2022/04/03 05:08:27;;;;;;;7.03;5.10;;;;;;;;;;10277295;28;20491;-90
2022/04/03 05:13:31;;;;;;;6.30;4.70;;;;;;;;;;10278795;28;20411;-89
2022/04/03 05:18:34;;;;;;;8.10;5.00;;;;;;;;;;10274322;28;20418;-89
2022/04/03 05:23:37;;;;;;;6.95;4.93;;;;;;;;;;10288390;28;20483;-90
2022/04/03 05:28:41;;;;;;;6.03;4.97;;;;;;;;;;10287268;28;20476;-88
2022/04/03 05:33:43;;;;;;;8.70;4.83;;;;;;;;;;10259608;28;20420;-90
2022/04/03 05:38:45;;;;;;;7.13;5.20;;;;;;;;;;10271736;28;20423;-88
2022/04/03 05:43:48;;;;;;;5.95;4.72;;;;;;;;;;10279698;28;20837;-96
2022/04/03 05:48:51;;;;;;;6.18;4.90;;;;;;;;;;10286560;28;20418;-95
2022/04/03 05:53:53;;;;;;;6.55;5.13;;;;;;;;;;10287117;28;20458;-95
2022/04/03 05:58:56;;;;;;;5.97;4.72;;;;;;;;;;10287505;28;20406;-96
2022/04/03 06:03:59;;;;;;;7.28;4.65;;;;;;;;;;10271228;28;20423;-96
2022/04/03 06:09:02;;;;;;;5.55;3.90;;;;;;;;;;10283476;28;20894;-96
2022/04/03 06:14:06;;;;;;;5.63;4.00;;;;;;;;;;10328085;28;20901;-96
2022/04/03 06:19:08;;;;;;;4.43;3.83;;;;;;;;;;10306821;28;20474;-95
2022/04/03 06:24:10;;;;;;;6.13;4.90;;;;;;;;;;10327596;28;20428;-95
2022/04/03 06:29:15;;;;;;;5.47;4.35;;;;;;;;;;10322074;28;20422;-95
2022/04/03 06:34:18;;;;;;;3.70;3.30;;;;;;;;;;10299709;28;20467;-95
2022/04/03 06:39:20;;;;;;;3.30;2.50;;;;;;;;;;10307349;28;20818;-95
2022/04/03 06:44:25;;;;;;;3.50;2.90;;;;;;;;;;10320259;28;20531;-93
2022/04/03 06:49:27;;;;;;;3.17;2.55;;;;;;;;;;10295561;28;20497;-94
2022/04/03 06:54:29;;;;;;;3.10;2.53;;;;;;;;;;10296904;28;20752;-95
2022/04/03 06:59:33;;;;;;;3.33;2.50;;;;;;;;;;10298278;28;20460;-95
2022/04/03 07:04:36;;;;;;;2.88;2.30;;;;;;;;;;10295972;28;20475;-93
2022/04/03 07:09:43;;;;;;;3.00;2.70;;;;;;;;;;10292114;28;20424;-94
2022/04/03 07:14:47;;;;;;;2.90;2.50;;;;;;;;;;10300786;28;20542;-95
2022/04/03 07:19:49;;;;;;;3.10;2.70;;;;;;;;;;10311780;28;20505;-95
2022/04/03 07:24:51;;;;;;;3.30;2.73;;;;;;;;;;10298560;28;20890;-93
2022/04/03 07:29:55;;;;;;;4.07;2.90;;;;;;;;;;10308670;28;21063;-94
2022/04/03 07:34:57;;;;;;;8.73;5.10;;;;;;;;;;10300293;28;20492;-95
2022/04/03 07:40:00;;;;;;;5.85;3.47;;;;;;;;;;10305968;28;20438;-95
2022/04/03 07:45:04;;;;;;;3.80;3.20;;;;;;;;;;10314090;28;20422;-94
2022/04/03 07:50:07;;;;;;;3.20;2.90;;;;;;;;;;10296387;28;20478;-94
2022/04/03 07:55:11;;;;;;;3.20;2.90;;;;;;;;;;10305873;28;20454;-95
2022/04/03 08:00:17;;;;;;;3.72;3.03;;;;;;;;;;10325208;28;20468;-95
2022/04/03 08:05:19;;;;;;;3.40;2.75;;;;;;;;;;10318360;28;20421;-93
2022/04/03 08:10:25;;;;;;;3.55;3.00;;;;;;;;;;10325809;28;20427;-94
2022/04/03 08:15:30;;;;;;;3.30;3.00;;;;;;;;;;10325987;28;20466;-95
2022/04/03 08:20:32;;;;;;;7.22;4.93;;;;;;;;;;10301940;28;20446;-95
2022/04/03 08:25:35;;;;;;;3.67;3.30;;;;;;;;;;10304741;28;20508;-94
2022/04/03 08:30:39;;;;;;;2.38;2.17;;;;;;;;;;10284540;28;20408;-94
2022/04/03 08:35:43;;;;;;;2.90;2.60;;;;;;;;;;10316260;28;20988;-95
2022/04/03 08:40:45;;;;;;;2.47;2.28;;;;;;;;;;10318104;28;20406;-95
2022/04/03 08:45:50;;;;;;;3.10;2.80;;;;;;;;;;10342627;28;20981;-95
2022/04/03 08:50:53;;;;;;;3.90;3.10;;;;;;;;;;10320186;28;20430;-95
2022/04/03 08:55:55;;;;;;;4.18;3.28;;;;;;;;;;10308520;28;20420;-94
2022/04/03 09:00:58;;;;;;;6.35;3.30;;;;;;;;;;10313531;28;20426;-94
2022/04/03 09:06:14;;;;;;;4.03;3.20;;;;;;;;;;10311588;28;20460;-95
2022/04/03 09:11:18;;;;;;;3.63;3.33;;;;;;;;;;10317279;28;20453;-94
2022/04/03 09:16:39;;;;;;;3.60;3.20;;;;;;;;;;10301359;28;20910;-95
2022/04/03 09:21:41;;;;;;;3.77;3.40;;;;;;;;;;10301279;28;20564;-95
2022/04/03 09:26:45;;;;;;;3.30;3.00;;;;;;;;;;10307493;28;20460;-95
2022/04/03 09:31:48;;;;;;;3.22;2.92;;;;;;;;;;10313893;28;20455;-95
2022/04/03 09:37:05;;;;;;;3.50;2.97;;;;;;;;;;10302232;28;20553;-95
2022/04/03 09:42:09;;;;;;;4.15;2.92;;;;;;;;;;10305304;28;21330;-94
2022/04/03 09:47:18;;;;;;;3.45;3.13;;;;;;;;;;10277612;28;20545;-94
2022/04/03 09:52:38;;;;;;;3.58;3.28;;;;;;;;;;10315109;28;20444;-94
2022/04/03 09:57:40;;;;;;;4.63;3.37;;;;;;;;;;10304148;28;20511;-94
2022/04/03 10:02:58;;;;;;;3.50;3.20;;;;;;;;;;10311710;28;20448;-94
2022/04/03 10:08:02;;;;;;;4.00;3.60;;;;;;;;;;10307065;28;20420;-95
2022/04/03 10:13:05;;;;;;;4.00;3.60;;;;;;;;;;10313272;28;20415;-96
2022/04/03 10:18:13;;;;;;;3.85;3.35;;;;;;;;;;10323648;28;20487;-95
2022/04/03 10:23:15;;;;;;;3.78;3.42;;;;;;;;;;10307479;28;20434;-95
2022/04/03 10:28:22;;;;;;;4.23;3.43;;;;;;;;;;10309463;28;20413;-96
2022/04/03 10:33:26;;;;;;;4.30;3.20;;;;;;;;;;10304941;28;20421;-94
2022/04/03 10:38:35;;;;;;;3.97;3.57;;;;;;;;;;10304349;28;20996;-94
2022/04/03 10:43:40;;;;;;;4.53;3.53;;;;;;;;;;10314487;28;20483;-93
2022/04/03 10:48:44;;;;;;;3.85;3.45;;;;;;;;;;10323850;28;20428;-93
2022/04/03 10:53:50;;;;;;;3.77;3.40;;;;;;;;;;10292358;28;20425;-94
2022/04/03 10:58:54;;;;;;;4.05;3.38;;;;;;;;;;10306651;28;20772;-94
2022/04/03 11:03:59;;;;;;;3.95;3.47;;;;;;;;;;10322497;28;20455;-94
2022/04/03 11:09:24;;;;;;;4.63;3.63;;;;;;;;;;10321673;28;20746;-94
2022/04/03 11:14:57;;;;;;;5.60;4.07;;;;;;;;;;10313758;28;20421;-93
2022/04/03 11:20:02;;;;;;;3.95;3.53;;;;;;;;;;10303905;28;20422;-94
2022/04/03 11:25:04;;;;;;;4.43;3.67;;;;;;;;;;10307831;28;20439;-94
2022/04/03 11:30:07;;;;;;;5.07;3.92;;;;;;;;;;10317940;28;20454;-95
2022/04/03 11:35:13;;;;;;;6.50;4.28;;;;;;;;;;10316124;28;20482;-94
2022/04/03 11:40:15;;;;;;;5.07;4.10;;;;;;;;;;10325462;28;20512;-94
2022/04/03 11:45:22;;;;;;;4.85;4.30;;;;;;;;;;10321349;28;20449;-93
2022/04/03 11:50:25;;;;;;;4.37;3.73;;;;;;;;;;10309811;28;20400;-93
2022/04/03 11:55:35;;;;;;;5.97;4.03;;;;;;;;;;10316348;28;20456;-95
2022/04/03 12:00:45;;;;;;;5.18;3.95;;;;;;;;;;10317198;28;20463;-94
2022/04/03 12:05:49;;;;;;;4.45;3.85;;;;;;;;;;10292532;28;20434;-94
2022/04/03 12:10:51;;;;;;;4.37;3.50;;;;;;;;;;10306948;28;20472;-93
2022/04/03 12:15:53;;;;;;;5.20;4.13;;;;;;;;;;10313866;28;20423;-92
2022/04/03 12:20:59;;;;;;;5.43;4.45;;;;;;;;;;10321024;28;20520;-94
2022/04/03 12:26:02;;;;;;;5.10;4.10;;;;;;;;;;10322993;28;20404;-94
2022/04/03 12:31:04;;;;;;;5.28;4.05;;;;;;;;;;10319867;28;21127;-93
2022/04/03 12:36:08;;;;;;;5.53;4.70;;;;;;;;;;10317094;28;20945;-93
2022/04/03 12:41:13;;;;;;;6.07;4.80;;;;;;;;;;10352493;28;20424;-93
2022/04/03 12:46:15;;;;;;;7.10;5.20;;;;;;;;;;10308809;28;20509;-91
2022/04/03 12:51:20;;;;;;;6.57;5.43;;;;;;;;;;10312350;28;20427;-93
2022/04/03 12:58:24;;;;;;;6.40;5.25;;;;;;;;;;10313088;28;20497;-94
2022/04/03 13:01:52;;;;;;;5.57;4.90;;;;;;;;;;10320859;28;20518;-93
2022/04/03 13:06:58;;;;;;;5.83;5.23;;;;;;;;;;10298487;28;20586;-94
2022/04/03 13:12:00;;;;;;;6.07;5.40;;;;;;;;;;10305348;28;20579;-95
2022/04/03 13:17:04;;;;;;;8.13;6.70;;;;;;;;;;10309588;28;20524;-94
2022/04/03 13:22:08;;;;;;;8.30;7.10;;;;;;;;;;10315103;28;20512;-95
2022/04/03 13:27:10;;;;;;;9.23;7.25;;;;;;;;;;10305441;28;20976;-92
2022/04/03 13:32:12;;;;;;;8.63;6.80;;;;;;;;;;10308793;28;20453;-88
2022/04/03 13:37:16;;;;;;;8.15;6.75;;;;;;;;;;10302489;28;20894;-93
2022/04/03 13:42:18;;;;;;;8.30;7.32;;;;;;;;;;10289229;28;20439;-91
2022/04/03 13:47:21;;;;;;;9.10;7.47;;;;;;;;;;10302089;28;20411;-93
2022/04/03 13:52:24;;;;;;;9.05;7.30;;;;;;;;;;10308463;28;20420;-93
2022/04/03 13:57:26;;;;;;;8.95;6.97;;;;;;;;;;10320660;28;20428;-95
2022/04/03 14:02:35;;;;;;;8.20;6.80;;;;;;;;;;10328014;28;20430;-96
2022/04/03 14:07:51;;;;;;;7.90;6.37;;;;;;;;;;10332155;28;20428;-95
2022/04/03 14:18:20;;;;;;;8.02;6.70;;;;;;;;;;10329659;28;20478;-96
2022/04/03 14:23:27;;;;;;;7.38;6.22;;;;;;;;;;10332240;28;20489;-96
2022/04/03 14:29:00;;;;;;;8.10;6.68;;;;;;;;;;10342621;28;20466;-96
2022/04/03 14:39:47;;;;;;;7.60;6.30;;;;;;;;;;10340830;28;20479;-96
2022/04/03 14:50:22;;;;;;;8.52;6.97;;;;;;;;;;10342955;28;20409;-96
2022/04/03 14:55:28;;;;;;;7.45;6.65;;;;;;;;;;10358510;28;20488;-96
2022/04/03 15:00:36;;;;;;;8.40;6.77;;;;;;;;;;10353552;28;20488;-94
2022/04/03 15:05:39;;;;;;;7.97;7.07;;;;;;;;;;10356985;28;20422;-95
2022/04/03 15:10:43;;;;;;;7.68;6.70;;;;;;;;;;10365879;28;20434;-96
2022/04/03 15:15:45;;;;;;;9.18;7.22;;;;;;;;;;10364017;28;20419;-96
2022/04/03 15:20:47;;;;;;;10.52;8.00;;;;;;;;;;10362775;28;20406;-96
2022/04/03 15:25:51;;;;;;;9.63;7.90;;;;;;;;;;10351683;28;20425;-96
2022/04/03 15:30:54;;;;;;;8.40;7.07;;;;;;;;;;10343952;28;20451;-96
2022/04/03 15:35:56;;;;;;;8.95;6.47;;;;;;;;;;10351173;28;20407;-96
2022/04/03 15:41:01;;;;;;;8.00;6.90;;;;;;;;;;10359725;28;20429;-96
2022/04/03 15:46:03;;;;;;;7.53;6.75;;;;;;;;;;10371951;28;20478;-96
2022/04/03 15:51:05;;;;;;;7.83;6.97;;;;;;;;;;10375227;28;20464;-96
2022/04/03 15:56:09;;;;;;;8.97;7.63;;;;;;;;;;10374737;28;20417;-96
2022/04/03 16:01:14;;;;;;;8.70;7.00;;;;;;;;;;10361135;28;20455;-96
2022/04/03 16:06:17;;;;;;;10.35;7.32;;;;;;;;;;10362063;28;20393;-96
2022/04/03 16:11:21;;;;;;;7.63;6.82;;;;;;;;;;10372712;28;20417;-96
2022/04/03 16:16:23;;;;;;;8.25;6.78;;;;;;;;;;10347879;28;20768;-96
2022/04/03 16:21:25;;;;;;;9.40;7.28;;;;;;;;;;10358089;28;20470;-96
2022/04/03 16:31:54;;;;;;;10.52;8.45;;;;;;;;;;10240664;28;20875;-92
2022/04/03 16:36:56;;;;;;;9.65;7.50;;;;;;;;;;10310782;28;20418;-94
2022/04/03 16:41:59;;;;;;;10.07;7.85;;;;;;;;;;10299634;28;20448;-93
2022/04/03 16:47:01;;;;;;;9.10;7.53;;;;;;;;;;10303504;28;20554;-94
2022/04/03 16:52:04;;;;;;;9.30;7.93;;;;;;;;;;10306797;28;20420;-94
2022/04/03 16:57:07;;;;;;;9.27;7.35;;;;;;;;;;10314755;28;20523;-93
2022/04/03 17:02:10;;;;;;;7.95;7.13;;;;;;;;;;10312142;28;20555;-93
2022/04/03 17:07:13;;;;;;;8.98;7.38;;;;;;;;;;10308517;28;20505;-91
2022/04/03 17:23:56;;;;;;;10.20;8.43;;;;;;;;;;10324080;28;20454;-94
2022/04/03 17:34:39;;;;;;;9.25;7.82;;;;;;;;;;10336040;28;20412;-96
2022/04/03 17:39:51;;;;;;;16.77;11.27;;;;;;;;;;10321946;28;20829;-96
2022/04/03 17:45:18;;;;;;;10.82;9.25;;;;;;;;;;10338667;28;20454;-96
2022/04/03 17:50:21;;;;;;;12.73;10.80;;;;;;;;;;10327158;28;20445;-96
2022/04/03 18:01:17;;;;;;;12.80;9.83;;;;;;;;;;10338826;28;20918;-95
2022/04/03 18:06:46;;;;;;;12.50;9.70;;;;;;;;;;10350907;28;20414;-96
2022/04/03 18:11:51;;;;;;;14.52;12.73;;;;;;;;;;10334504;28;20417;-91
2022/04/03 18:16:58;;;;;;;16.03;12.80;;;;;;;;;;10336633;28;20419;-91
2022/04/03 18:22:03;;;;;;;18.30;12.98;;;;;;;;;;10339852;28;20908;-90
2022/04/03 18:27:07;;;;;;;20.00;13.40;;;;;;;;;;10306549;28;20473;-91
2022/04/03 18:32:09;;;;;;;12.63;10.37;;;;;;;;;;10314570;28;21142;-91
2022/04/03 18:37:13;;;;;;;20.70;13.47;;;;;;;;;;10299375;28;20423;-76
2022/04/03 18:42:20;;;;;;;16.05;13.68;;;;;;;;;;10309575;28;20422;-96
2022/04/03 18:47:33;;;;;;;24.57;19.77;;;;;;;;;;10331733;28;20470;-96
2022/04/03 18:53:16;;;;;;;23.92;19.60;;;;;;;;;;10323973;28;20470;-96
2022/04/03 19:27:38;;;;;;;20.75;17.42;;;;;;;;;;10333019;28;20485;-96
2022/04/03 19:39:18;;;;;;;19.85;16.10;;;;;;;;;;10346013;28;20620;-96
2022/04/03 20:02:35;;;;;;;20.02;15.73;;;;;;;;;;10316356;28;20471;-96
2022/04/03 20:07:53;;;;;;;18.00;15.10;;;;;;;;;;10350393;28;20476;-96
2022/04/03 20:12:58;;;;;;;18.60;14.77;;;;;;;;;;10338484;28;20481;-96
2022/04/03 20:18:13;;;;;;;18.58;14.82;;;;;;;;;;10316940;28;20556;-96
2022/04/03 20:28:39;;;;;;;22.40;18.50;;;;;;;;;;10321530;28;20498;-92
2022/04/03 20:33:44;;;;;;;17.60;14.70;;;;;;;;;;10315978;28;20433;-95
2022/04/03 20:38:52;;;;;;;18.55;15.88;;;;;;;;;;10316668;28;20448;-95
2022/04/03 20:43:56;;;;;;;18.23;16.05;;;;;;;;;;10310005;28;20494;-95
2022/04/03 20:49:00;;;;;;;20.97;16.83;;;;;;;;;;10317851;28;20818;-96
2022/04/03 20:54:02;;;;;;;18.57;15.37;;;;;;;;;;10311086;28;20455;-95
2022/04/03 20:59:05;;;;;;;19.30;16.55;;;;;;;;;;10308141;28;20457;-96
2022/04/03 21:04:10;;;;;;;20.23;16.45;;;;;;;;;;10303706;28;21137;-95
2022/04/03 21:09:12;;;;;;;19.75;16.45;;;;;;;;;;10301821;28;20429;-95
2022/04/03 21:14:17;;;;;;;20.35;16.73;;;;;;;;;;10310780;28;20418;-95
2022/04/03 21:19:21;;;;;;;18.50;16.15;;;;;;;;;;10316883;28;20489;-94
2022/04/03 21:24:23;;;;;;;19.00;16.60;;;;;;;;;;10312455;28;20499;-95
2022/04/03 21:29:29;;;;;;;22.55;17.30;;;;;;;;;;10306853;28;20507;-95
2022/04/03 21:34:34;;;;;;;20.98;17.80;;;;;;;;;;10307891;28;20470;-95
2022/04/03 21:39:37;;;;;;;22.95;18.65;;;;;;;;;;10307691;28;20912;-94
2022/04/03 21:44:39;;;;;;;20.43;17.23;;;;;;;;;;10303410;28;20506;-95
2022/04/03 21:49:43;;;;;;;20.02;15.85;;;;;;;;;;10313872;28;20430;-95
2022/04/03 21:54:46;;;;;;;19.10;15.52;;;;;;;;;;10308459;28;20417;-94
2022/04/03 21:59:48;;;;;;;20.58;16.80;;;;;;;;;;10303600;28;20832;-96
2022/04/03 22:04:52;;;;;;;20.43;17.23;;;;;;;;;;10325719;28;20817;-95
2022/04/03 22:09:55;;;;;;;19.52;16.85;;;;;;;;;;10319068;28;20417;-94
2022/04/03 22:14:58;;;;;;;20.30;17.10;;;;;;;;;;10307803;28;20419;-94
2022/04/03 22:20:03;;;;;;;21.20;17.33;;;;;;;;;;10315958;28;20715;-95
2022/04/03 22:25:06;;;;;;;20.27;17.17;;;;;;;;;;10322190;28;20433;-95
2022/04/03 22:30:10;;;;;;;23.52;17.92;;;;;;;;;;10318979;28;20514;-94
2022/04/03 22:35:13;;;;;;;20.92;17.05;;;;;;;;;;10352571;28;20484;-95
2022/04/03 22:40:18;;;;;;;18.50;15.60;;;;;;;;;;10323089;28;20998;-95
2022/04/03 22:45:20;;;;;;;19.42;16.38;;;;;;;;;;10316754;28;20478;-95
2022/04/03 22:50:25;;;;;;;20.15;16.23;;;;;;;;;;10314915;28;20486;-94
2022/04/03 22:55:27;;;;;;;17.75;15.85;;;;;;;;;;10317970;28;20471;-95
2022/04/03 23:00:29;;;;;;;19.00;16.30;;;;;;;;;;10315647;28;20422;-94
2022/04/03 23:05:33;;;;;;;18.75;16.25;;;;;;;;;;10324290;28;20437;-94
2022/04/03 23:10:35;;;;;;;21.15;17.95;;;;;;;;;;10330259;28;20461;-95
2022/04/03 23:15:37;;;;;;;20.20;16.98;;;;;;;;;;10325773;28;20408;-95
2022/04/03 23:20:42;;;;;;;20.80;17.33;;;;;;;;;;10328395;28;20897;-94
2022/04/03 23:25:44;;;;;;;21.60;16.90;;;;;;;;;;10333986;28;20424;-95
2022/04/03 23:30:47;;;;;;;20.00;16.33;;;;;;;;;;10333988;28;20931;-93
2022/04/03 23:35:52;;;;;;;20.53;16.80;;;;;;;;;;10330649;28;20573;-95
2022/04/03 23:40:54;;;;;;;18.73;15.80;;;;;;;;;;10335705;28;20408;-95
2022/04/03 23:46:00;;;;;;;17.02;14.93;;;;;;;;;;10335808;28;21004;-95
2022/04/03 23:51:08;;;;;;;17.27;14.82;;;;;;;;;;10335583;28;20420;-95
2022/04/03 23:56:13;;;;;;;16.83;14.18;;;;;;;;;;10332481;28;20429;-96
